sensor_id;sensor_type;location;lat;lon;timestamp;temperature;humidity
16118;DHT22;8163;50.118;5.342;2022-12-13T00:01:30;-3.20;81.50
16118;DHT22;8163;50.118;5.342;2022-12-13T00:03:58;-3.20;81.60
16118;DHT22;8163;50.118;5.342;2022-12-13T00:06:27;-3.20;81.70
16118;DHT22;8163;50.118;5.342;2022-12-13T00:08:54;-3.20;81.90
16118;DHT22;8163;50.118;5.342;2022-12-13T00:11:21;-3.20;82.20
16118;DHT22;8163;50.118;5.342;2022-12-13T00:13:49;-3.20;82.30
16118;DHT22;8163;50.118;5.342;2022-12-13T00:16:17;-3.20;82.40
16118;DHT22;8163;50.118;5.342;2022-12-13T00:18:48;-3.20;82.90
16118;DHT22;8163;50.118;5.342;2022-12-13T00:21:17;-3.20;82.80
16118;DHT22;8163;50.118;5.342;2022-12-13T00:23:45;-3.20;82.90
16118;DHT22;8163;50.118;5.342;2022-12-13T00:26:14;-3.20;82.90
16118;DHT22;8163;50.118;5.342;2022-12-13T00:28:41;-3.20;83.20
16118;DHT22;8163;50.118;5.342;2022-12-13T00:31:09;-3.20;83.60
16118;DHT22;8163;50.118;5.342;2022-12-13T00:33:37;-3.20;83.90
16118;DHT22;8163;50.118;5.342;2022-12-13T00:36:07;-3.20;83.90
16118;DHT22;8163;50.118;5.342;2022-12-13T00:38:35;-3.30;84.10
16118;DHT22;8163;50.118;5.342;2022-12-13T00:41:09;-3.30;84.60
16118;DHT22;8163;50.118;5.342;2022-12-13T00:43:37;-3.30;84.80
16118;DHT22;8163;50.118;5.342;2022-12-13T00:46:05;-3.30;85.00
16118;DHT22;8163;50.118;5.342;2022-12-13T00:48:32;-3.30;85.10
16118;DHT22;8163;50.118;5.342;2022-12-13T00:51:04;-3.30;85.50
16118;DHT22;8163;50.118;5.342;2022-12-13T00:53:33;-3.30;85.50
16118;DHT22;8163;50.118;5.342;2022-12-13T00:56:00;-3.30;85.70
16118;DHT22;8163;50.118;5.342;2022-12-13T00:58:27;-3.30;85.80
16118;DHT22;8163;50.118;5.342;2022-12-13T01:01:01;-3.30;86.00
16118;DHT22;8163;50.118;5.342;2022-12-13T01:03:28;-3.30;86.00
16118;DHT22;8163;50.118;5.342;2022-12-13T01:05:55;-3.30;86.10
16118;DHT22;8163;50.118;5.342;2022-12-13T01:08:22;-3.40;86.00
16118;DHT22;8163;50.118;5.342;2022-12-13T01:10:51;-3.40;86.20
16118;DHT22;8163;50.118;5.342;2022-12-13T01:13:18;-3.40;86.30
16118;DHT22;8163;50.118;5.342;2022-12-13T01:15:46;-3.40;86.70
16118;DHT22;8163;50.118;5.342;2022-12-13T01:18:14;-3.40;86.90
16118;DHT22;8163;50.118;5.342;2022-12-13T01:20:43;-3.40;87.10
16118;DHT22;8163;50.118;5.342;2022-12-13T01:23:10;-3.50;87.50
16118;DHT22;8163;50.118;5.342;2022-12-13T01:25:37;-3.50;87.60
16118;DHT22;8163;50.118;5.342;2022-12-13T01:28:05;-3.50;87.60
16118;DHT22;8163;50.118;5.342;2022-12-13T01:30:32;-3.50;87.70
16118;DHT22;8163;50.118;5.342;2022-12-13T01:32:59;-3.50;87.80
16118;DHT22;8163;50.118;5.342;2022-12-13T01:35:26;-3.50;87.80
16118;DHT22;8163;50.118;5.342;2022-12-13T01:37:53;-3.60;87.90
16118;DHT22;8163;50.118;5.342;2022-12-13T01:40:20;-3.60;87.90
16118;DHT22;8163;50.118;5.342;2022-12-13T01:42:47;-3.60;88.00
16118;DHT22;8163;50.118;5.342;2022-12-13T01:45:23;-3.60;88.10
16118;DHT22;8163;50.118;5.342;2022-12-13T01:47:53;-3.60;88.20
16118;DHT22;8163;50.118;5.342;2022-12-13T01:50:24;-3.60;88.30
16118;DHT22;8163;50.118;5.342;2022-12-13T01:52:53;-3.60;88.30
16118;DHT22;8163;50.118;5.342;2022-12-13T01:55:21;-3.60;88.20
16118;DHT22;8163;50.118;5.342;2022-12-13T01:57:50;-3.70;88.00
16118;DHT22;8163;50.118;5.342;2022-12-13T02:00:18;-3.70;88.00
16118;DHT22;8163;50.118;5.342;2022-12-13T02:02:47;-3.70;88.20
16118;DHT22;8163;50.118;5.342;2022-12-13T02:05:20;-3.70;88.20
16118;DHT22;8163;50.118;5.342;2022-12-13T02:07:49;-3.80;87.80
16118;DHT22;8163;50.118;5.342;2022-12-13T02:10:17;-3.80;87.80
16118;DHT22;8163;50.118;5.342;2022-12-13T02:12:44;-3.80;87.70
16118;DHT22;8163;50.118;5.342;2022-12-13T02:15:13;-3.80;88.40
16118;DHT22;8163;50.118;5.342;2022-12-13T02:17:59;-3.90;88.40
16118;DHT22;8163;50.118;5.342;2022-12-13T02:24:00;-3.90;87.50
16118;DHT22;8163;50.118;5.342;2022-12-13T02:26:52;-4.00;87.50
16118;DHT22;8163;50.118;5.342;2022-12-13T02:29:55;-4.00;87.50
16118;DHT22;8163;50.118;5.342;2022-12-13T02:32:32;-4.10;87.60
16118;DHT22;8163;50.118;5.342;2022-12-13T02:35:03;-4.00;87.80
16118;DHT22;8163;50.118;5.342;2022-12-13T02:37:36;-4.10;87.80
16118;DHT22;8163;50.118;5.342;2022-12-13T02:40:08;-4.10;88.00
16118;DHT22;8163;50.118;5.342;2022-12-13T02:42:41;-4.10;88.10
16118;DHT22;8163;50.118;5.342;2022-12-13T02:45:12;-4.10;88.40
16118;DHT22;8163;50.118;5.342;2022-12-13T02:47:42;-4.10;88.70
16118;DHT22;8163;50.118;5.342;2022-12-13T02:50:11;-4.10;88.60
16118;DHT22;8163;50.118;5.342;2022-12-13T02:52:40;-4.10;88.60
16118;DHT22;8163;50.118;5.342;2022-12-13T02:55:13;-4.10;88.70
16118;DHT22;8163;50.118;5.342;2022-12-13T02:57:43;-4.20;88.80
16118;DHT22;8163;50.118;5.342;2022-12-13T03:00:13;-4.20;88.90
16118;DHT22;8163;50.118;5.342;2022-12-13T03:02:59;-4.20;89.30
16118;DHT22;8163;50.118;5.342;2022-12-13T03:05:35;-4.20;89.40
16118;DHT22;8163;50.118;5.342;2022-12-13T03:08:25;-4.20;90.10
16118;DHT22;8163;50.118;5.342;2022-12-13T03:11:03;-4.20;90.00
16118;DHT22;8163;50.118;5.342;2022-12-13T03:13:38;-4.20;90.10
16118;DHT22;8163;50.118;5.342;2022-12-13T03:16:12;-4.20;90.30
16118;DHT22;8163;50.118;5.342;2022-12-13T03:18:42;-4.20;90.30
16118;DHT22;8163;50.118;5.342;2022-12-13T03:21:11;-4.30;90.30
16118;DHT22;8163;50.118;5.342;2022-12-13T03:23:39;-4.20;90.50
16118;DHT22;8163;50.118;5.342;2022-12-13T03:26:09;-4.30;90.70
16118;DHT22;8163;50.118;5.342;2022-12-13T03:28:37;-4.30;90.70
16118;DHT22;8163;50.118;5.342;2022-12-13T03:31:05;-4.30;90.70
16118;DHT22;8163;50.118;5.342;2022-12-13T03:33:32;-4.30;90.80
16118;DHT22;8163;50.118;5.342;2022-12-13T03:36:01;-4.30;91.10
16118;DHT22;8163;50.118;5.342;2022-12-13T03:38:28;-4.30;91.40
16118;DHT22;8163;50.118;5.342;2022-12-13T03:40:58;-4.30;91.80
16118;DHT22;8163;50.118;5.342;2022-12-13T03:43:26;-4.30;92.20
16118;DHT22;8163;50.118;5.342;2022-12-13T03:45:54;-4.30;92.30
16118;DHT22;8163;50.118;5.342;2022-12-13T03:48:22;-4.30;92.30
16118;DHT22;8163;50.118;5.342;2022-12-13T03:50:49;-4.30;92.40
16118;DHT22;8163;50.118;5.342;2022-12-13T03:53:17;-4.30;92.50
16118;DHT22;8163;50.118;5.342;2022-12-13T03:55:44;-4.30;92.90
16118;DHT22;8163;50.118;5.342;2022-12-13T03:58:13;-4.30;93.40
16118;DHT22;8163;50.118;5.342;2022-12-13T04:00:40;-4.30;93.80
16118;DHT22;8163;50.118;5.342;2022-12-13T04:03:07;-4.30;94.30
16118;DHT22;8163;50.118;5.342;2022-12-13T04:05:34;-4.30;95.10
16118;DHT22;8163;50.118;5.342;2022-12-13T04:08:02;-4.30;95.60
16118;DHT22;8163;50.118;5.342;2022-12-13T04:10:30;-4.30;96.30
16118;DHT22;8163;50.118;5.342;2022-12-13T04:12:57;-4.30;97.00
16118;DHT22;8163;50.118;5.342;2022-12-13T04:15:41;-4.30;97.80
16118;DHT22;8163;50.118;5.342;2022-12-13T04:18:14;-4.30;98.10
16118;DHT22;8163;50.118;5.342;2022-12-13T04:20:43;-4.40;99.10
16118;DHT22;8163;50.118;5.342;2022-12-13T04:23:10;-4.40;99.90
16118;DHT22;8163;50.118;5.342;2022-12-13T04:25:39;-4.40;99.90
16118;DHT22;8163;50.118;5.342;2022-12-13T04:28:06;-4.40;99.90
16118;DHT22;8163;50.118;5.342;2022-12-13T04:30:34;-4.40;99.90
16118;DHT22;8163;50.118;5.342;2022-12-13T04:33:02;-4.40;99.90
16118;DHT22;8163;50.118;5.342;2022-12-13T04:35:29;-4.50;99.90
16118;DHT22;8163;50.118;5.342;2022-12-13T04:37:57;-4.50;99.90
16118;DHT22;8163;50.118;5.342;2022-12-13T04:40:24;-4.50;99.90
16118;DHT22;8163;50.118;5.342;2022-12-13T04:42:52;-4.40;99.90
16118;DHT22;8163;50.118;5.342;2022-12-13T04:45:20;-4.40;99.90
16118;DHT22;8163;50.118;5.342;2022-12-13T04:47:48;-4.50;99.90
16118;DHT22;8163;50.118;5.342;2022-12-13T04:50:17;-4.50;99.90
16118;DHT22;8163;50.118;5.342;2022-12-13T04:52:44;-4.50;99.90
16118;DHT22;8163;50.118;5.342;2022-12-13T04:55:11;-4.50;99.90
16118;DHT22;8163;50.118;5.342;2022-12-13T04:57:39;-4.50;99.90
16118;DHT22;8163;50.118;5.342;2022-12-13T05:00:10;-4.50;99.90
16118;DHT22;8163;50.118;5.342;2022-12-13T05:02:40;-4.50;99.90
16118;DHT22;8163;50.118;5.342;2022-12-13T05:05:08;-4.60;99.90
16118;DHT22;8163;50.118;5.342;2022-12-13T05:07:35;-4.60;99.90
16118;DHT22;8163;50.118;5.342;2022-12-13T05:10:04;-4.60;99.90
16118;DHT22;8163;50.118;5.342;2022-12-13T05:12:31;-4.60;99.90
16118;DHT22;8163;50.118;5.342;2022-12-13T05:14:58;-4.60;99.90
16118;DHT22;8163;50.118;5.342;2022-12-13T05:17:26;-4.70;99.90
16118;DHT22;8163;50.118;5.342;2022-12-13T05:19:53;-4.60;99.90
16118;DHT22;8163;50.118;5.342;2022-12-13T05:22:20;-4.60;99.90
16118;DHT22;8163;50.118;5.342;2022-12-13T05:24:47;-4.60;99.90
16118;DHT22;8163;50.118;5.342;2022-12-13T05:27:14;-4.60;99.90
16118;DHT22;8163;50.118;5.342;2022-12-13T05:29:41;-4.60;99.90
16118;DHT22;8163;50.118;5.342;2022-12-13T05:32:08;-4.60;99.90
16118;DHT22;8163;50.118;5.342;2022-12-13T05:34:36;-4.60;99.90
16118;DHT22;8163;50.118;5.342;2022-12-13T05:37:03;-4.60;99.90
16118;DHT22;8163;50.118;5.342;2022-12-13T05:39:30;-4.50;99.90
16118;DHT22;8163;50.118;5.342;2022-12-13T05:41:58;-4.60;99.90
16118;DHT22;8163;50.118;5.342;2022-12-13T05:44:25;-4.60;99.90
16118;DHT22;8163;50.118;5.342;2022-12-13T05:46:52;-4.60;99.90
16118;DHT22;8163;50.118;5.342;2022-12-13T05:49:19;-4.60;99.90
16118;DHT22;8163;50.118;5.342;2022-12-13T05:51:47;-4.60;99.90
16118;DHT22;8163;50.118;5.342;2022-12-13T05:54:14;-4.60;99.90
16118;DHT22;8163;50.118;5.342;2022-12-13T05:56:41;-4.60;99.90
16118;DHT22;8163;50.118;5.342;2022-12-13T05:59:08;-4.60;99.90
16118;DHT22;8163;50.118;5.342;2022-12-13T06:01:36;-4.60;99.90
16118;DHT22;8163;50.118;5.342;2022-12-13T06:04:03;-4.60;99.90
16118;DHT22;8163;50.118;5.342;2022-12-13T06:06:30;-4.70;99.90
16118;DHT22;8163;50.118;5.342;2022-12-13T06:08:59;-4.60;99.90
16118;DHT22;8163;50.118;5.342;2022-12-13T06:11:26;-4.60;99.90
16118;DHT22;8163;50.118;5.342;2022-12-13T06:16:32;-4.60;99.90
16118;DHT22;8163;50.118;5.342;2022-12-13T06:18:59;-4.60;99.90
16118;DHT22;8163;50.118;5.342;2022-12-13T06:21:27;-4.60;99.90
16118;DHT22;8163;50.118;5.342;2022-12-13T06:23:54;-4.60;99.90
16118;DHT22;8163;50.118;5.342;2022-12-13T06:26:22;-4.60;99.90
16118;DHT22;8163;50.118;5.342;2022-12-13T06:28:49;-4.60;99.90
16118;DHT22;8163;50.118;5.342;2022-12-13T06:31:16;-4.70;99.90
16118;DHT22;8163;50.118;5.342;2022-12-13T06:33:43;-4.60;99.90
16118;DHT22;8163;50.118;5.342;2022-12-13T06:36:10;-4.60;99.90
16118;DHT22;8163;50.118;5.342;2022-12-13T06:38:37;-4.60;99.90
16118;DHT22;8163;50.118;5.342;2022-12-13T06:41:06;-4.60;99.90
16118;DHT22;8163;50.118;5.342;2022-12-13T06:43:35;-4.60;99.90
16118;DHT22;8163;50.118;5.342;2022-12-13T06:46:03;-4.70;99.90
16118;DHT22;8163;50.118;5.342;2022-12-13T06:48:30;-4.70;99.90
16118;DHT22;8163;50.118;5.342;2022-12-13T06:50:59;-4.70;99.90
16118;DHT22;8163;50.118;5.342;2022-12-13T06:53:27;-4.70;99.90
16118;DHT22;8163;50.118;5.342;2022-12-13T06:55:54;-4.70;99.90
16118;DHT22;8163;50.118;5.342;2022-12-13T06:58:21;-4.70;99.90
16118;DHT22;8163;50.118;5.342;2022-12-13T07:00:50;-4.70;99.90
16118;DHT22;8163;50.118;5.342;2022-12-13T07:03:26;-4.70;99.90
16118;DHT22;8163;50.118;5.342;2022-12-13T07:05:54;-4.70;99.90
16118;DHT22;8163;50.118;5.342;2022-12-13T07:08:23;-4.70;99.90
16118;DHT22;8163;50.118;5.342;2022-12-13T07:10:51;-4.70;99.90
16118;DHT22;8163;50.118;5.342;2022-12-13T07:13:20;-4.60;99.90
16118;DHT22;8163;50.118;5.342;2022-12-13T07:15:47;-4.60;99.90
16118;DHT22;8163;50.118;5.342;2022-12-13T07:18:16;-4.60;99.90
16118;DHT22;8163;50.118;5.342;2022-12-13T07:20:43;-4.60;99.90
16118;DHT22;8163;50.118;5.342;2022-12-13T07:23:11;-4.50;99.90
16118;DHT22;8163;50.118;5.342;2022-12-13T07:25:38;-4.60;99.90
16118;DHT22;8163;50.118;5.342;2022-12-13T07:28:07;-4.50;99.90
16118;DHT22;8163;50.118;5.342;2022-12-13T07:30:36;-4.60;99.90
16118;DHT22;8163;50.118;5.342;2022-12-13T07:33:03;-4.60;99.90
16118;DHT22;8163;50.118;5.342;2022-12-13T07:35:33;-4.60;99.90
16118;DHT22;8163;50.118;5.342;2022-12-13T07:38:00;-4.60;99.90
16118;DHT22;8163;50.118;5.342;2022-12-13T07:40:27;-4.60;99.90
16118;DHT22;8163;50.118;5.342;2022-12-13T07:42:54;-4.60;99.90
16118;DHT22;8163;50.118;5.342;2022-12-13T07:45:22;-4.50;99.90
16118;DHT22;8163;50.118;5.342;2022-12-13T07:47:50;-4.50;99.90
16118;DHT22;8163;50.118;5.342;2022-12-13T07:50:17;-4.40;99.90
16118;DHT22;8163;50.118;5.342;2022-12-13T07:52:47;-4.40;99.90
16118;DHT22;8163;50.118;5.342;2022-12-13T07:55:15;-4.40;99.90
16118;DHT22;8163;50.118;5.342;2022-12-13T07:57:42;-4.40;99.90
16118;DHT22;8163;50.118;5.342;2022-12-13T08:00:11;-4.40;99.90
16118;DHT22;8163;50.118;5.342;2022-12-13T08:02:39;-4.40;99.90
16118;DHT22;8163;50.118;5.342;2022-12-13T08:05:07;-4.30;99.90
16118;DHT22;8163;50.118;5.342;2022-12-13T08:07:34;-4.30;99.90
16118;DHT22;8163;50.118;5.342;2022-12-13T08:10:03;-4.30;99.90
16118;DHT22;8163;50.118;5.342;2022-12-13T08:12:30;-4.30;99.90
16118;DHT22;8163;50.118;5.342;2022-12-13T08:17:31;-4.20;99.90
16118;DHT22;8163;50.118;5.342;2022-12-13T08:19:58;-4.20;99.90
16118;DHT22;8163;50.118;5.342;2022-12-13T08:22:25;-4.10;99.90
16118;DHT22;8163;50.118;5.342;2022-12-13T08:24:52;-4.00;99.90
16118;DHT22;8163;50.118;5.342;2022-12-13T08:27:21;-3.90;99.90
16118;DHT22;8163;50.118;5.342;2022-12-13T08:29:48;-3.70;99.90
16118;DHT22;8163;50.118;5.342;2022-12-13T08:32:15;-3.50;99.90
16118;DHT22;8163;50.118;5.342;2022-12-13T08:34:41;-3.20;99.90
16118;DHT22;8163;50.118;5.342;2022-12-13T08:37:10;-2.60;99.90
16118;DHT22;8163;50.118;5.342;2022-12-13T08:39:37;-2.00;99.90
16118;DHT22;8163;50.118;5.342;2022-12-13T08:42:06;-1.30;99.90
16118;DHT22;8163;50.118;5.342;2022-12-13T08:44:35;-0.80;99.90
16118;DHT22;8163;50.118;5.342;2022-12-13T08:47:02;-0.80;99.90
16118;DHT22;8163;50.118;5.342;2022-12-13T08:49:29;-0.70;99.90
16118;DHT22;8163;50.118;5.342;2022-12-13T08:51:57;-0.50;99.90
16118;DHT22;8163;50.118;5.342;2022-12-13T08:54:24;-0.30;99.90
16118;DHT22;8163;50.118;5.342;2022-12-13T08:56:52;0.60;99.90
16118;DHT22;8163;50.118;5.342;2022-12-13T08:59:22;1.10;99.90
16118;DHT22;8163;50.118;5.342;2022-12-13T09:01:51;1.70;99.90
16118;DHT22;8163;50.118;5.342;2022-12-13T09:04:18;1.90;99.90
16118;DHT22;8163;50.118;5.342;2022-12-13T09:06:45;1.40;99.90
16118;DHT22;8163;50.118;5.342;2022-12-13T09:09:12;1.10;98.60
16118;DHT22;8163;50.118;5.342;2022-12-13T09:11:39;0.80;98.50
16118;DHT22;8163;50.118;5.342;2022-12-13T09:14:06;0.80;97.90
16118;DHT22;8163;50.118;5.342;2022-12-13T09:16:33;0.80;95.70
16118;DHT22;8163;50.118;5.342;2022-12-13T09:19:04;0.80;94.80
16118;DHT22;8163;50.118;5.342;2022-12-13T09:21:31;0.80;94.50
16118;DHT22;8163;50.118;5.342;2022-12-13T09:23:58;0.80;93.00
16118;DHT22;8163;50.118;5.342;2022-12-13T09:26:25;0.80;92.90
16118;DHT22;8163;50.118;5.342;2022-12-13T09:28:52;1.00;92.90
16118;DHT22;8163;50.118;5.342;2022-12-13T09:31:19;1.10;92.60
16118;DHT22;8163;50.118;5.342;2022-12-13T09:33:47;1.10;92.00
16118;DHT22;8163;50.118;5.342;2022-12-13T09:36:17;0.90;91.50
16118;DHT22;8163;50.118;5.342;2022-12-13T09:38:45;0.90;90.90
16118;DHT22;8163;50.118;5.342;2022-12-13T09:41:17;1.10;91.00
16118;DHT22;8163;50.118;5.342;2022-12-13T09:43:48;1.30;90.30
16118;DHT22;8163;50.118;5.342;2022-12-13T09:46:24;1.60;90.30
16118;DHT22;8163;50.118;5.342;2022-12-13T09:48:52;2.00;90.60
16118;DHT22;8163;50.118;5.342;2022-12-13T09:51:21;2.00;88.70
16118;DHT22;8163;50.118;5.342;2022-12-13T09:53:51;2.10;87.60
16118;DHT22;8163;50.118;5.342;2022-12-13T09:56:19;2.50;87.80
16118;DHT22;8163;50.118;5.342;2022-12-13T09:58:48;2.80;87.50
16118;DHT22;8163;50.118;5.342;2022-12-13T10:01:16;3.10;87.90
16118;DHT22;8163;50.118;5.342;2022-12-13T10:03:46;3.70;88.00
16118;DHT22;8163;50.118;5.342;2022-12-13T10:06:15;4.20;87.30
16118;DHT22;8163;50.118;5.342;2022-12-13T10:08:47;4.30;84.70
16118;DHT22;8163;50.118;5.342;2022-12-13T10:11:15;4.40;84.10
16118;DHT22;8163;50.118;5.342;2022-12-13T10:13:45;4.10;81.40
16118;DHT22;8163;50.118;5.342;2022-12-13T10:16:17;4.10;79.70
16118;DHT22;8163;50.118;5.342;2022-12-13T10:18:46;4.50;80.70
16118;DHT22;8163;50.118;5.342;2022-12-13T10:21:18;4.40;79.00
16118;DHT22;8163;50.118;5.342;2022-12-13T10:23:47;4.30;77.20
16118;DHT22;8163;50.118;5.342;2022-12-13T10:26:14;4.20;76.90
16118;DHT22;8163;50.118;5.342;2022-12-13T10:28:41;3.80;75.40
16118;DHT22;8163;50.118;5.342;2022-12-13T10:31:15;3.80;75.10
16118;DHT22;8163;50.118;5.342;2022-12-13T10:33:52;3.80;75.10
16118;DHT22;8163;50.118;5.342;2022-12-13T10:36:31;3.90;75.40
16118;DHT22;8163;50.118;5.342;2022-12-13T10:38:59;4.10;74.70
16118;DHT22;8163;50.118;5.342;2022-12-13T10:41:33;4.00;74.40
16118;DHT22;8163;50.118;5.342;2022-12-13T10:44:24;3.90;73.50
16118;DHT22;8163;50.118;5.342;2022-12-13T10:47:01;3.70;72.60
16118;DHT22;8163;50.118;5.342;2022-12-13T10:49:36;3.40;72.10
16118;DHT22;8163;50.118;5.342;2022-12-13T10:52:04;3.60;72.60
16118;DHT22;8163;50.118;5.342;2022-12-13T10:54:34;4.10;73.80
16118;DHT22;8163;50.118;5.342;2022-12-13T10:57:02;4.20;72.80
16118;DHT22;8163;50.118;5.342;2022-12-13T10:59:34;4.00;72.40
16118;DHT22;8163;50.118;5.342;2022-12-13T11:02:24;3.90;71.90
16118;DHT22;8163;50.118;5.342;2022-12-13T11:04:53;4.00;72.40
16118;DHT22;8163;50.118;5.342;2022-12-13T11:07:23;4.00;72.00
16118;DHT22;8163;50.118;5.342;2022-12-13T11:09:51;3.70;71.10
16118;DHT22;8163;50.118;5.342;2022-12-13T11:12:20;3.30;70.30
16118;DHT22;8163;50.118;5.342;2022-12-13T11:14:51;3.10;70.00
16118;DHT22;8163;50.118;5.342;2022-12-13T11:17:21;3.00;70.10
16118;DHT22;8163;50.118;5.342;2022-12-13T11:19:52;3.00;70.10
16118;DHT22;8163;50.118;5.342;2022-12-13T11:22:22;3.30;70.90
16118;DHT22;8163;50.118;5.342;2022-12-13T11:24:54;3.50;71.20
16118;DHT22;8163;50.118;5.342;2022-12-13T11:27:39;3.80;71.20
16118;DHT22;8163;50.118;5.342;2022-12-13T11:30:11;4.00;71.40
16118;DHT22;8163;50.118;5.342;2022-12-13T11:33:13;3.90;71.30
16118;DHT22;8163;50.118;5.342;2022-12-13T11:35:55;3.80;70.80
16118;DHT22;8163;50.118;5.342;2022-12-13T11:38:29;3.50;69.80
16118;DHT22;8163;50.118;5.342;2022-12-13T11:41:01;3.40;69.80
16118;DHT22;8163;50.118;5.342;2022-12-13T11:43:36;3.40;70.10
16118;DHT22;8163;50.118;5.342;2022-12-13T11:46:12;3.30;69.90
16118;DHT22;8163;50.118;5.342;2022-12-13T11:48:43;3.30;70.00
16118;DHT22;8163;50.118;5.342;2022-12-13T11:51:13;3.50;70.40
16118;DHT22;8163;50.118;5.342;2022-12-13T11:53:50;3.70;70.60
16118;DHT22;8163;50.118;5.342;2022-12-13T11:56:24;3.80;70.10
16118;DHT22;8163;50.118;5.342;2022-12-13T11:59:00;3.90;70.70
16118;DHT22;8163;50.118;5.342;2022-12-13T12:01:32;3.90;70.70
16118;DHT22;8163;50.118;5.342;2022-12-13T12:04:13;3.90;70.30
16118;DHT22;8163;50.118;5.342;2022-12-13T12:06:49;3.80;70.30
16118;DHT22;8163;50.118;5.342;2022-12-13T12:09:18;4.00;71.00
16118;DHT22;8163;50.118;5.342;2022-12-13T12:11:55;4.10;70.40
16118;DHT22;8163;50.118;5.342;2022-12-13T12:14:34;4.00;69.30
16118;DHT22;8163;50.118;5.342;2022-12-13T12:17:03;3.90;69.10
16118;DHT22;8163;50.118;5.342;2022-12-13T12:19:35;4.30;70.50
16118;DHT22;8163;50.118;5.342;2022-12-13T12:22:13;4.20;70.10
16118;DHT22;8163;50.118;5.342;2022-12-13T12:24:51;3.90;68.70
16118;DHT22;8163;50.118;5.342;2022-12-13T12:27:28;3.80;68.30
16118;DHT22;8163;50.118;5.342;2022-12-13T12:30:07;4.50;70.30
16118;DHT22;8163;50.118;5.342;2022-12-13T12:32:42;5.10;71.10
16118;DHT22;8163;50.118;5.342;2022-12-13T12:35:24;4.90;69.40
16118;DHT22;8163;50.118;5.342;2022-12-13T12:38:01;4.50;68.20
16118;DHT22;8163;50.118;5.342;2022-12-13T12:40:46;4.30;68.80
16118;DHT22;8163;50.118;5.342;2022-12-13T12:43:23;4.30;67.40
16118;DHT22;8163;50.118;5.342;2022-12-13T12:46:02;4.20;67.50
16118;DHT22;8163;50.118;5.342;2022-12-13T12:51:31;4.60;68.30
16118;DHT22;8163;50.118;5.342;2022-12-13T12:54:11;4.40;67.30
16118;DHT22;8163;50.118;5.342;2022-12-13T12:56:48;3.80;65.60
16118;DHT22;8163;50.118;5.342;2022-12-13T12:59:23;3.30;65.10
16118;DHT22;8163;50.118;5.342;2022-12-13T13:01:59;3.20;65.80
16118;DHT22;8163;50.118;5.342;2022-12-13T13:04:31;2.80;65.30
16118;DHT22;8163;50.118;5.342;2022-12-13T13:07:05;2.60;65.50
16118;DHT22;8163;50.118;5.342;2022-12-13T13:09:37;2.70;66.40
16118;DHT22;8163;50.118;5.342;2022-12-13T13:12:05;2.70;66.40
16118;DHT22;8163;50.118;5.342;2022-12-13T13:14:36;2.50;65.90
16118;DHT22;8163;50.118;5.342;2022-12-13T13:20:21;2.00;65.70
16118;DHT22;8163;50.118;5.342;2022-12-13T13:22:49;1.80;65.60
16118;DHT22;8163;50.118;5.342;2022-12-13T13:25:31;1.60;65.70
16118;DHT22;8163;50.118;5.342;2022-12-13T13:28:01;1.30;65.80
16118;DHT22;8163;50.118;5.342;2022-12-13T13:30:32;1.10;65.90
16118;DHT22;8163;50.118;5.342;2022-12-13T13:33:00;0.90;65.90
16118;DHT22;8163;50.118;5.342;2022-12-13T13:35:45;0.60;66.60
16118;DHT22;8163;50.118;5.342;2022-12-13T13:41:40;0.50;67.80
16118;DHT22;8163;50.118;5.342;2022-12-13T13:47:39;0.30;67.80
16118;DHT22;8163;50.118;5.342;2022-12-13T14:37:27;-0.60;67.40
16118;DHT22;8163;50.118;5.342;2022-12-13T14:39:55;-0.60;68.70
16118;DHT22;8163;50.118;5.342;2022-12-13T14:42:25;-0.60;69.90
16118;DHT22;8163;50.118;5.342;2022-12-13T14:44:54;-0.70;69.20
16118;DHT22;8163;50.118;5.342;2022-12-13T14:47:22;-0.70;69.60
16118;DHT22;8163;50.118;5.342;2022-12-13T14:49:53;-0.80;69.80
16118;DHT22;8163;50.118;5.342;2022-12-13T14:52:23;-0.90;70.30
16118;DHT22;8163;50.118;5.342;2022-12-13T14:54:54;-1.00;70.60
16118;DHT22;8163;50.118;5.342;2022-12-13T14:57:24;-1.10;70.80
16118;DHT22;8163;50.118;5.342;2022-12-13T14:59:53;-1.10;72.10
16118;DHT22;8163;50.118;5.342;2022-12-13T15:02:22;-1.20;71.70
16118;DHT22;8163;50.118;5.342;2022-12-13T15:04:52;-1.20;71.90
16118;DHT22;8163;50.118;5.342;2022-12-13T15:07:23;-1.30;72.10
16118;DHT22;8163;50.118;5.342;2022-12-13T15:09:55;-1.30;72.40
16118;DHT22;8163;50.118;5.342;2022-12-13T15:12:23;-1.40;72.60
16118;DHT22;8163;50.118;5.342;2022-12-13T15:14:56;-1.40;72.60
16118;DHT22;8163;50.118;5.342;2022-12-13T15:17:30;-1.40;72.90
16118;DHT22;8163;50.118;5.342;2022-12-13T15:19:57;-1.50;72.80
16118;DHT22;8163;50.118;5.342;2022-12-13T15:22:25;-1.50;72.90
16118;DHT22;8163;50.118;5.342;2022-12-13T15:24:54;-1.60;73.30
16118;DHT22;8163;50.118;5.342;2022-12-13T15:27:22;-1.70;73.50
16118;DHT22;8163;50.118;5.342;2022-12-13T15:29:50;-1.70;73.90
16118;DHT22;8163;50.118;5.342;2022-12-13T15:32:19;-1.70;74.00
16118;DHT22;8163;50.118;5.342;2022-12-13T15:34:48;-1.70;73.90
16118;DHT22;8163;50.118;5.342;2022-12-13T15:37:23;-1.80;73.90
16118;DHT22;8163;50.118;5.342;2022-12-13T15:39:54;-1.80;74.50
16118;DHT22;8163;50.118;5.342;2022-12-13T15:42:26;-1.90;75.00
16118;DHT22;8163;50.118;5.342;2022-12-13T15:44:56;-1.90;75.00
16118;DHT22;8163;50.118;5.342;2022-12-13T15:47:24;-1.90;75.00
16118;DHT22;8163;50.118;5.342;2022-12-13T15:49:53;-1.90;76.00
16118;DHT22;8163;50.118;5.342;2022-12-13T15:52:30;-1.90;75.10
16118;DHT22;8163;50.118;5.342;2022-12-13T15:55:00;-1.90;75.40
16118;DHT22;8163;50.118;5.342;2022-12-13T15:57:29;-1.90;75.30
16118;DHT22;8163;50.118;5.342;2022-12-13T16:00:20;-1.90;75.30
16118;DHT22;8163;50.118;5.342;2022-12-13T16:02:51;-2.00;75.40
16118;DHT22;8163;50.118;5.342;2022-12-13T16:05:24;-1.90;75.30
16118;DHT22;8163;50.118;5.342;2022-12-13T16:07:53;-1.90;76.20
16118;DHT22;8163;50.118;5.342;2022-12-13T16:10:22;-2.00;75.20
16118;DHT22;8163;50.118;5.342;2022-12-13T16:12:52;-1.90;76.20
16118;DHT22;8163;50.118;5.342;2022-12-13T16:15:21;-2.00;75.40
16118;DHT22;8163;50.118;5.342;2022-12-13T16:17:49;-2.00;75.60
16118;DHT22;8163;50.118;5.342;2022-12-13T16:20:18;-2.00;75.80
16118;DHT22;8163;50.118;5.342;2022-12-13T16:22:46;-2.00;75.90
16118;DHT22;8163;50.118;5.342;2022-12-13T16:25:15;-2.10;76.00
16118;DHT22;8163;50.118;5.342;2022-12-13T16:27:44;-2.10;76.20
16118;DHT22;8163;50.118;5.342;2022-12-13T16:30:21;-2.10;76.50
16118;DHT22;8163;50.118;5.342;2022-12-13T16:32:49;-2.10;76.80
16118;DHT22;8163;50.118;5.342;2022-12-13T16:35:17;-2.20;77.00
16118;DHT22;8163;50.118;5.342;2022-12-13T16:37:44;-2.20;77.30
16118;DHT22;8163;50.118;5.342;2022-12-13T16:40:23;-2.20;77.30
16118;DHT22;8163;50.118;5.342;2022-12-13T16:42:51;-2.20;77.30
16118;DHT22;8163;50.118;5.342;2022-12-13T16:45:21;-2.20;77.20
16118;DHT22;8163;50.118;5.342;2022-12-13T16:47:50;-2.20;77.30
16118;DHT22;8163;50.118;5.342;2022-12-13T16:50:19;-2.20;77.50
16118;DHT22;8163;50.118;5.342;2022-12-13T16:52:46;-2.20;77.50
16118;DHT22;8163;50.118;5.342;2022-12-13T16:55:14;-2.20;77.50
16118;DHT22;8163;50.118;5.342;2022-12-13T16:57:41;-2.20;77.50
16118;DHT22;8163;50.118;5.342;2022-12-13T17:00:11;-2.20;77.60
16118;DHT22;8163;50.118;5.342;2022-12-13T17:02:39;-2.20;77.70
16118;DHT22;8163;50.118;5.342;2022-12-13T17:05:07;-2.20;77.80
16118;DHT22;8163;50.118;5.342;2022-12-13T17:07:34;-2.20;77.90
16118;DHT22;8163;50.118;5.342;2022-12-13T17:10:02;-2.20;77.90
16118;DHT22;8163;50.118;5.342;2022-12-13T17:12:29;-2.20;78.00
16118;DHT22;8163;50.118;5.342;2022-12-13T17:14:56;-2.20;78.00
16118;DHT22;8163;50.118;5.342;2022-12-13T17:17:24;-2.20;77.80